Time;durP1;ratioP1;P1;durP2;ratioP2;P2;SDS_P1;SDS_P2;PMS_P1;PMS_P2;Temp;Humidity;BMP_temperature;BMP_pressure;BME280_temperature;BME280_humidity;BME280_pressure;Samples;Min_cycle;Max_cycle;Signal;HPM_P1;HPM_P2
2023/09/05 00:00:51;;;;;;;1.90;1.30;;;19.30;71.40;18.50;97166.00;;;;5033944;28;20194;-82
2023/09/05 00:03:19;;;;;;;1.83;1.27;;;19.30;71.60;18.50;97163.00;;;;5032039;28;20569;-82
2023/09/05 00:05:49;;;;;;;1.50;1.40;;;19.30;71.60;18.50;97160.00;;;;5035418;28;20585;-83
2023/09/05 00:08:18;;;;;;;1.47;1.20;;;19.30;72.30;18.40;97157.00;;;;5039874;28;20205;-82
2023/09/05 00:10:45;;;;;;;1.20;1.10;;;19.30;71.60;18.40;97158.00;;;;5035331;28;20213;-81
2023/09/05 00:13:14;;;;;;;1.80;1.63;;;19.30;71.40;18.40;97158.00;;;;5037916;28;20189;-82
2023/09/05 00:15:41;;;;;;;1.80;1.23;;;19.30;71.30;18.40;97158.00;;;;5045250;28;20217;-83
2023/09/05 00:18:08;;;;;;;1.17;1.07;;;19.30;71.20;18.40;97150.00;;;;5036700;28;21495;-82
2023/09/05 00:20:35;;;;;;;1.37;1.27;;;19.30;71.20;18.40;97157.00;;;;5036102;28;20641;-82
2023/09/05 00:23:04;;;;;;;1.40;1.30;;;19.20;71.20;18.30;97157.00;;;;5021243;28;20197;-83
2023/09/05 00:25:32;;;;;;;1.83;1.50;;;19.20;71.10;18.30;97146.00;;;;5031828;28;20285;-82
2023/09/05 00:28:00;;;;;;;1.80;1.30;;;19.20;71.30;18.30;97157.00;;;;5041793;28;20198;-82
2023/09/05 00:30:27;;;;;;;1.30;1.20;;;19.20;71.40;18.30;97156.00;;;;5029542;28;20197;-82
2023/09/05 00:32:56;;;;;;;1.43;1.33;;;19.10;71.30;18.20;97152.00;;;;5030427;28;20200;-82
2023/09/05 00:39:06;;;;;;;1.40;1.30;;;19.10;71.10;18.20;97151.00;;;;5022064;28;20385;-82
2023/09/05 00:41:34;;;;;;;1.60;1.50;;;19.10;71.40;18.10;97145.00;;;;5026938;28;20198;-82
2023/09/05 00:44:02;;;;;;;1.60;1.50;;;19.00;71.30;18.10;97149.00;;;;5022324;28;20220;-82
2023/09/05 00:46:30;;;;;;;1.60;1.50;;;19.00;71.40;18.10;97144.00;;;;5021832;28;20236;-83
2023/09/05 00:49:02;;;;;;;2.23;1.50;;;19.00;71.50;18.10;97138.00;;;;5022438;28;20665;-82
2023/09/05 00:51:31;;;;;;;1.40;1.30;;;19.00;71.70;18.10;97134.00;;;;5020363;28;20576;-82
2023/09/05 00:54:00;;;;;;;2.80;1.60;;;19.00;71.70;18.10;97129.00;;;;5005812;28;20297;-82
2023/09/05 00:56:29;;;;;;;1.40;1.30;;;18.90;71.70;18.10;97136.00;;;;5016195;28;20231;-83
2023/09/05 00:58:57;;;;;;;1.47;1.37;;;18.90;71.70;18.10;97140.00;;;;5021803;28;20210;-82
2023/09/05 01:01:24;;;;;;;1.60;1.50;;;18.90;71.80;18.10;97143.00;;;;5024771;28;20206;-82
2023/09/05 01:03:55;;;;;;;1.50;1.40;;;18.90;71.90;18.10;97139.00;;;;5025920;28;20197;-82
2023/09/05 01:06:33;;;;;;;1.50;1.40;;;18.90;71.90;18.00;97138.00;;;;5025047;28;20305;-82
2023/09/05 01:09:19;;;;;;;1.37;1.27;;;18.90;71.90;18.00;97143.00;;;;5023573;28;20204;-82
2023/09/05 01:11:48;;;;;;;1.50;1.40;;;18.90;71.90;18.00;97137.00;;;;5026453;28;20273;-81
2023/09/05 01:14:17;;;;;;;1.70;1.60;;;18.90;72.10;18.00;97138.00;;;;5024004;28;20205;-82
2023/09/05 01:16:45;;;;;;;1.70;1.60;;;18.80;71.80;18.00;97124.00;;;;5025123;28;20791;-83
2023/09/05 01:19:14;;;;;;;1.83;1.70;;;18.90;72.30;18.00;97125.00;;;;5025229;28;20198;-82
2023/09/05 01:21:56;;;;;;;1.50;1.27;;;18.90;72.30;18.00;97125.00;;;;5026588;28;20202;-81
2023/09/05 01:24:25;;;;;;;1.83;1.73;;;18.90;72.20;18.00;97124.00;;;;5025025;28;20599;-81
2023/09/05 01:26:56;;;;;;;1.60;1.30;;;18.90;72.30;18.00;97122.00;;;;5027371;28;20286;-82
2023/09/05 01:29:30;;;;;;;1.83;1.60;;;18.80;73.00;18.00;97118.00;;;;5025864;28;20262;-81
2023/09/05 01:32:00;;;;;;;2.07;1.53;;;18.80;72.30;17.90;97118.00;;;;5027052;28;20277;-81
2023/09/05 01:34:27;;;;;;;1.43;1.30;;;18.80;72.30;17.90;97115.00;;;;5025344;28;20226;-83
2023/09/05 01:36:55;;;;;;;1.63;1.27;;;18.80;72.30;17.90;97120.00;;;;5024955;28;20285;-83
2023/09/05 01:39:24;;;;;;;1.70;1.60;;;18.80;72.40;17.90;97116.00;;;;4992413;28;20229;-82
2023/09/05 01:41:52;;;;;;;1.53;1.43;;;18.80;72.40;17.90;97117.00;;;;5025403;28;20273;-83
2023/09/05 01:44:19;;;;;;;2.07;1.50;;;18.80;72.40;17.90;97111.00;;;;5026041;28;20206;-82
2023/09/05 01:46:46;;;;;;;1.73;1.63;;;18.70;72.30;17.90;97111.00;;;;5025169;28;20222;-81
2023/09/05 01:49:14;;;;;;;1.80;1.70;;;18.70;72.40;17.80;97109.00;;;;5028325;28;20233;-82
2023/09/05 01:51:41;;;;;;;1.50;1.40;;;18.70;72.50;17.80;97102.00;;;;5027721;28;20265;-82
2023/09/05 01:54:08;;;;;;;1.50;1.40;;;18.80;72.70;17.80;97100.00;;;;5028416;28;20691;-82
2023/09/05 01:56:37;;;;;;;1.77;1.43;;;18.70;72.70;17.80;97088.00;;;;5026506;28;20258;-82
2023/09/05 01:59:05;;;;;;;2.90;1.70;;;18.70;72.70;17.80;97085.00;;;;5028722;28;20199;-81
2023/09/05 02:01:34;;;;;;;1.70;1.60;;;18.70;72.80;17.80;97080.00;;;;5028022;28;20264;-82
2023/09/05 02:04:01;;;;;;;1.60;1.50;;;18.70;72.80;17.80;97087.00;;;;5027194;28;20250;-82
2023/09/05 02:06:29;;;;;;;1.60;1.50;;;18.60;72.80;17.80;97091.00;;;;5021283;28;20232;-82
2023/09/05 02:08:56;;;;;;;1.73;1.60;;;18.60;72.80;17.80;97090.00;;;;5020491;28;20635;-82
2023/09/05 02:11:23;;;;;;;1.63;1.53;;;18.60;72.80;17.80;97086.00;;;;5017454;28;20202;-82
2023/09/05 02:13:52;;;;;;;1.67;1.53;;;18.60;72.90;17.80;97092.00;;;;5018432;28;20229;-81
2023/09/05 02:16:19;;;;;;;2.33;1.50;;;18.60;73.00;17.80;97088.00;;;;5008429;28;20222;-82
2023/09/05 02:18:49;;;;;;;1.97;1.87;;;18.60;73.10;17.80;97094.00;;;;5019963;28;20200;-82
2023/09/05 02:21:17;;;;;;;1.70;1.60;;;18.60;73.10;17.80;97102.00;;;;5020154;28;20205;-82
2023/09/05 02:23:44;;;;;;;1.60;1.50;;;18.60;73.20;17.80;97099.00;;;;5018290;28;20202;-82
2023/09/05 02:26:12;;;;;;;2.07;1.87;;;18.60;73.20;17.80;97106.00;;;;5019640;28;20226;-82
2023/09/05 02:28:40;;;;;;;1.60;1.50;;;18.60;73.20;17.90;97108.00;;;;5018787;28;20206;-82
2023/09/05 02:31:09;;;;;;;2.33;1.60;;;18.70;73.20;17.90;97105.00;;;;5019846;28;20269;-82
2023/09/05 02:33:37;;;;;;;1.40;1.30;;;18.70;73.20;17.90;97102.00;;;;5018895;28;20194;-82
2023/09/05 02:36:10;;;;;;;1.63;1.53;;;18.70;73.20;17.90;97104.00;;;;5016716;28;20229;-82
2023/09/05 02:38:37;;;;;;;1.63;1.53;;;18.70;73.20;17.90;97108.00;;;;5017425;28;20228;-82
2023/09/05 02:41:05;;;;;;;1.60;1.50;;;18.70;73.20;17.90;97103.00;;;;5019265;28;20217;-82
2023/09/05 02:43:33;;;;;;;1.83;1.60;;;18.70;73.20;17.90;97100.00;;;;5019568;28;20197;-82
2023/09/05 02:46:00;;;;;;;1.63;1.53;;;18.70;73.20;17.90;97101.00;;;;5022778;28;20285;-82
2023/09/05 02:48:29;;;;;;;1.77;1.67;;;18.70;73.20;17.90;97096.00;;;;5022844;28;20285;-81
2023/09/05 02:51:04;;;;;;;1.60;1.50;;;18.70;73.20;17.90;97088.00;;;;5023021;28;20759;-82
2023/09/05 02:53:31;;;;;;;2.00;1.90;;;18.70;73.00;17.90;97095.00;;;;5023577;28;20201;-81
2023/09/05 02:55:59;;;;;;;1.73;1.63;;;18.80;73.20;17.90;97104.00;;;;5023025;28;20218;-81
2023/09/05 02:58:28;;;;;;;1.70;1.60;;;18.80;73.20;17.90;97099.00;;;;5024576;28;20266;-81
2023/09/05 03:01:00;;;;;;;1.73;1.30;;;18.80;73.20;17.90;97103.00;;;;5023211;28;20657;-81
2023/09/05 03:03:29;;;;;;;2.10;1.57;;;18.80;73.30;17.90;97101.00;;;;5023592;28;20285;-81
2023/09/05 03:05:57;;;;;;;1.80;1.47;;;18.80;73.20;17.90;97109.00;;;;5024965;28;20221;-81
2023/09/05 03:08:24;;;;;;;1.73;1.53;;;18.80;73.20;17.90;97103.00;;;;5025708;28;20220;-82
2023/09/05 03:10:53;;;;;;;1.50;1.40;;;18.80;73.30;17.90;97110.00;;;;5024291;28;20236;-82
2023/09/05 03:13:21;;;;;;;2.03;1.83;;;18.80;73.10;17.90;97110.00;;;;5024322;28;20199;-81
2023/09/05 03:15:52;;;;;;;1.73;1.63;;;18.80;73.20;17.90;97100.00;;;;5018241;28;20214;-81
2023/09/05 03:18:20;;;;;;;1.80;1.70;;;18.80;73.00;17.90;97107.00;;;;5019386;28;20206;-81
2023/09/05 03:20:49;;;;;;;1.73;1.63;;;18.80;73.00;17.90;97110.00;;;;5018034;28;20252;-81
2023/09/05 03:23:16;;;;;;;1.60;1.47;;;18.80;72.90;17.90;97108.00;;;;5020199;28;20198;-82
2023/09/05 03:25:43;;;;;;;2.00;1.77;;;18.70;72.90;17.90;97108.00;;;;5019399;28;20221;-81
2023/09/05 03:28:13;;;;;;;1.70;1.53;;;18.70;73.10;17.80;97103.00;;;;5018559;28;20262;-81
2023/09/05 03:30:40;;;;;;;1.63;1.40;;;18.70;73.20;17.90;97108.00;;;;5017822;28;20206;-82
2023/09/05 03:33:07;;;;;;;1.50;1.40;;;18.70;73.10;17.80;97103.00;;;;5016945;28;20212;-82
2023/09/05 03:35:35;;;;;;;1.70;1.60;;;18.70;73.10;17.80;97108.00;;;;5017669;28;20220;-83
2023/09/05 03:38:06;;;;;;;1.30;1.20;;;18.70;73.20;17.80;97103.00;;;;5016076;28;20222;-81
2023/09/05 03:40:33;;;;;;;1.80;1.70;;;18.70;73.30;17.80;97097.00;;;;5017127;28;20202;-81
2023/09/05 03:43:01;;;;;;;2.10;1.37;;;18.60;73.30;17.80;97104.00;;;;5016513;28;20855;-82
2023/09/05 03:45:30;;;;;;;1.73;1.60;;;18.70;73.40;17.80;97100.00;;;;5016349;28;20214;-81
2023/09/05 03:47:57;;;;;;;1.50;1.40;;;18.60;73.30;17.80;97114.00;;;;5015426;28;20304;-81
2023/09/05 03:50:25;;;;;;;1.50;1.40;;;18.60;73.30;17.80;97109.00;;;;5019138;28;20205;-81
2023/09/05 03:52:52;;;;;;;1.80;1.37;;;18.60;73.30;17.80;97110.00;;;;5018425;28;20201;-81
2023/09/05 03:55:21;;;;;;;1.70;1.60;;;18.60;73.30;17.80;97109.00;;;;5018401;28;20301;-81
2023/09/05 03:57:48;;;;;;;1.67;1.57;;;18.60;73.50;17.80;97103.00;;;;5016197;28;20209;-81
2023/09/05 04:00:16;;;;;;;3.47;1.60;;;18.60;73.50;17.80;97110.00;;;;5017567;28;20198;-81
2023/09/05 04:02:43;;;;;;;2.10;1.70;;;18.60;73.40;17.80;97109.00;;;;5018395;28;20289;-81
2023/09/05 04:05:11;;;;;;;1.70;1.60;;;18.60;73.40;17.80;97109.00;;;;5018214;28;20218;-81
2023/09/05 04:07:38;;;;;;;1.70;1.60;;;18.60;74.20;17.80;97115.00;;;;5017084;28;20229;-81
2023/09/05 04:10:07;;;;;;;1.70;1.60;;;18.70;73.60;17.80;97110.00;;;;5021923;28;20198;-81
2023/09/05 04:12:37;;;;;;;1.90;1.70;;;18.70;73.70;17.80;97115.00;;;;5021479;28;20236;-81
2023/09/05 04:15:05;;;;;;;1.90;1.70;;;18.70;73.60;17.80;97111.00;;;;5019799;28;20198;-81
2023/09/05 04:17:33;;;;;;;1.83;1.63;;;18.70;73.60;17.80;97115.00;;;;5021056;28;20201;-81
2023/09/05 04:20:02;;;;;;;1.53;1.43;;;18.70;73.60;17.90;97121.00;;;;5020246;28;20319;-81
2023/09/05 04:22:29;;;;;;;1.93;1.73;;;18.70;73.60;17.90;97118.00;;;;5019790;28;20209;-82
2023/09/05 04:24:59;;;;;;;1.80;1.70;;;18.70;73.60;17.90;97119.00;;;;5020563;28;20196;-81
2023/09/05 04:27:27;;;;;;;1.80;1.70;;;18.70;73.50;17.90;97115.00;;;;5018609;28;20698;-81
2023/09/05 04:29:56;;;;;;;1.90;1.70;;;18.70;73.60;17.90;97125.00;;;;5019848;28;20680;-81
2023/09/05 04:32:28;;;;;;;1.50;1.40;;;18.70;73.60;17.80;97125.00;;;;5020663;28;20193;-82
2023/09/05 04:34:56;;;;;;;1.80;1.70;;;18.70;73.70;17.90;97129.00;;;;5018570;28;20289;-81
2023/09/05 04:37:25;;;;;;;1.87;1.40;;;18.70;73.80;17.80;97123.00;;;;5019516;28;20204;-81
2023/09/05 04:39:54;;;;;;;1.90;1.77;;;18.70;73.80;17.80;97123.00;;;;5019966;28;20194;-81
2023/09/05 04:42:22;;;;;;;1.80;1.70;;;18.70;73.90;17.90;97124.00;;;;5019171;28;20198;-81
2023/09/05 04:44:51;;;;;;;1.83;1.73;;;18.70;74.00;17.90;97118.00;;;;5018505;28;20663;-81
2023/09/05 04:47:23;;;;;;;1.97;1.80;;;18.70;74.00;17.90;97117.00;;;;5013546;28;20222;-81
2023/09/05 04:49:51;;;;;;;1.90;1.80;;;18.70;74.00;17.90;97114.00;;;;5009395;28;20214;-82
2023/09/05 04:52:21;;;;;;;2.90;1.90;;;18.70;74.00;17.90;97122.00;;;;5019993;28;20194;-82
2023/09/05 04:54:49;;;;;;;1.97;1.87;;;18.70;73.90;17.90;97122.00;;;;5021719;28;20285;-82
2023/09/05 04:57:17;;;;;;;1.83;1.73;;;18.70;73.90;17.90;97122.00;;;;5020629;28;20201;-82
2023/09/05 04:59:47;;;;;;;2.30;2.10;;;18.80;73.90;17.90;97131.00;;;;5020066;28;20210;-81
2023/09/05 05:02:15;;;;;;;1.87;1.77;;;18.80;73.90;17.90;97137.00;;;;5019488;28;20285;-82
2023/09/05 05:04:44;;;;;;;2.40;2.20;;;18.80;73.90;17.90;97144.00;;;;5018987;28;20205;-82
2023/09/05 05:07:11;;;;;;;1.87;1.60;;;18.80;73.90;17.90;97141.00;;;;5018641;28;20214;-81
2023/09/05 05:09:40;;;;;;;2.17;1.97;;;18.80;73.90;17.90;97137.00;;;;5018299;28;20263;-82
2023/09/05 05:12:09;;;;;;;1.70;1.60;;;18.80;73.90;17.90;97130.00;;;;5008518;28;20198;-82
2023/09/05 05:14:37;;;;;;;1.80;1.70;;;18.80;73.90;17.90;97133.00;;;;5017201;28;20290;-80
2023/09/05 05:17:06;;;;;;;2.10;2.00;;;18.80;74.10;17.90;97134.00;;;;5014618;28;20250;-80
2023/09/05 05:19:33;;;;;;;2.03;1.70;;;18.80;74.10;17.90;97141.00;;;;5018647;28;20206;-80
2023/09/05 05:22:02;;;;;;;2.20;2.00;;;18.80;74.10;17.90;97140.00;;;;5017396;28;20353;-81
2023/09/05 05:24:36;;;;;;;2.30;1.63;;;18.80;74.10;17.90;97139.00;;;;5017120;28;20273;-80
2023/09/05 05:27:04;;;;;;;1.83;1.50;;;18.80;74.10;17.90;97146.00;;;;5016666;28;20230;-81
2023/09/05 05:29:32;;;;;;;1.80;1.70;;;18.80;74.20;18.00;97148.00;;;;4999985;28;20205;-80
2023/09/05 05:32:00;;;;;;;2.23;2.10;;;18.80;74.20;18.00;97151.00;;;;5018694;28;20671;-81
2023/09/05 05:34:27;;;;;;;2.13;2.00;;;18.80;74.20;18.00;97148.00;;;;5019900;28;20191;-82
2023/09/05 05:36:54;;;;;;;1.83;1.73;;;18.80;74.30;18.00;97148.00;;;;5011867;28;20317;-80
2023/09/05 05:39:25;;;;;;;2.37;2.20;;;18.80;74.40;18.00;97146.00;;;;4998944;28;20210;-81
2023/09/05 05:41:52;;;;;;;1.80;1.70;;;18.80;74.50;18.00;97145.00;;;;5006482;28;20229;-81
2023/09/05 05:44:19;;;;;;;3.17;2.10;;;18.80;74.50;18.00;97143.00;;;;5017341;28;20202;-80
2023/09/05 05:46:47;;;;;;;2.20;2.00;;;18.80;74.70;18.00;97148.00;;;;5017845;28;20226;-81
2023/09/05 05:49:14;;;;;;;2.03;1.93;;;18.90;74.80;18.00;97146.00;;;;5017722;28;20201;-81
2023/09/05 05:51:42;;;;;;;2.10;1.90;;;18.80;74.70;18.10;97147.00;;;;5015536;28;20243;-80
2023/09/05 05:54:09;;;;;;;1.73;1.57;;;18.80;74.70;18.10;97148.00;;;;5011292;28;20194;-81
2023/09/05 05:56:38;;;;;;;1.80;1.70;;;18.90;74.90;18.10;97147.00;;;;5008545;28;20224;-81
2023/09/05 05:59:06;;;;;;;1.87;1.70;;;18.90;74.90;18.10;97145.00;;;;5015583;28;20204;-81
2023/09/05 06:01:34;;;;;;;2.37;1.97;;;18.90;75.00;18.10;97146.00;;;;5020109;28;20194;-81
2023/09/05 06:04:01;;;;;;;2.17;1.97;;;18.90;74.90;18.10;97154.00;;;;5019969;28;20209;-81
2023/09/05 06:06:28;;;;;;;2.90;2.43;;;18.90;74.90;18.20;97153.00;;;;5021298;28;20602;-81
2023/09/05 06:08:55;;;;;;;2.20;1.90;;;19.00;75.80;18.20;97144.00;;;;5020229;28;20198;-81
2023/09/05 06:11:23;;;;;;;4.03;2.23;;;19.00;75.10;18.20;97150.00;;;;5019947;28;20208;-81
2023/09/05 06:13:52;;;;;;;3.03;2.00;;;19.00;75.10;18.30;97159.00;;;;5022017;28;20289;-81
2023/09/05 06:16:19;;;;;;;2.00;1.90;;;19.00;75.10;18.30;97154.00;;;;5021274;28;20218;-81
2023/09/05 06:18:47;;;;;;;2.97;1.83;;;19.00;75.10;18.30;97153.00;;;;5020558;28;20216;-81
2023/09/05 06:21:14;;;;;;;1.90;1.80;;;19.10;75.20;18.30;97157.00;;;;5019905;28;20201;-81
2023/09/05 06:23:41;;;;;;;2.70;2.47;;;19.10;75.20;18.40;97153.00;;;;5015537;28;20205;-81
2023/09/05 06:26:08;;;;;;;2.40;1.87;;;19.10;75.20;18.40;97150.00;;;;5015747;28;20235;-81
2023/09/05 06:28:36;;;;;;;2.40;2.20;;;19.10;75.10;18.40;97151.00;;;;5017721;28;20227;-82
2023/09/05 06:31:06;;;;;;;2.57;2.23;;;19.20;75.10;18.50;97150.00;;;;5017557;28;20194;-81
2023/09/05 06:33:33;;;;;;;2.53;2.10;;;19.20;75.10;18.50;97149.00;;;;5017960;28;20226;-81
2023/09/05 06:36:06;;;;;;;2.40;2.03;;;19.20;75.20;18.50;97152.00;;;;5017142;28;20615;-81
2023/09/05 06:38:34;;;;;;;2.33;2.10;;;19.30;75.20;18.60;97146.00;;;;5018806;28;20209;-81
2023/09/05 06:41:06;;;;;;;2.37;1.90;;;19.30;75.90;18.60;97153.00;;;;5000304;28;20252;-81
2023/09/05 06:43:33;;;;;;;3.33;3.03;;;19.30;75.20;18.60;97157.00;;;;5017845;28;20581;-81
2023/09/05 06:46:07;;;;;;;3.00;2.50;;;19.40;75.40;18.70;97152.00;;;;5016808;28;20218;-81
2023/09/05 06:48:35;;;;;;;2.50;2.30;;;19.40;75.30;18.70;97144.00;;;;5015862;28;20218;-81
2023/09/05 06:51:02;;;;;;;3.87;2.43;;;19.40;75.20;18.70;97145.00;;;;5012825;28;20213;-81
2023/09/05 06:53:31;;;;;;;2.30;2.10;;;19.50;75.20;18.80;97140.00;;;;5011691;28;20204;-81
2023/09/05 06:55:58;;;;;;;3.00;2.10;;;19.50;75.00;18.90;97146.00;;;;5016364;28;20226;-81
2023/09/05 06:58:27;;;;;;;2.10;1.90;;;19.50;74.80;18.90;97143.00;;;;5017305;28;20221;-81
2023/09/05 07:00:55;;;;;;;2.00;1.80;;;19.60;74.80;19.00;97140.00;;;;5015925;28;20280;-81
2023/09/05 07:03:26;;;;;;;2.90;2.00;;;19.60;75.00;19.00;97142.00;;;;5019844;28;20207;-81
2023/09/05 07:05:56;;;;;;;2.40;2.07;;;19.60;74.90;19.10;97155.00;;;;5014157;28;20224;-80
2023/09/05 07:08:23;;;;;;;2.37;2.17;;;19.70;74.90;19.20;97153.00;;;;5013458;28;20217;-80
2023/09/05 07:10:51;;;;;;;1.97;1.87;;;19.70;74.90;19.20;97160.00;;;;5014430;28;20210;-80
2023/09/05 07:13:18;;;;;;;2.67;2.20;;;19.80;74.90;19.30;97144.00;;;;5014616;28;20202;-81
2023/09/05 07:15:45;;;;;;;2.33;2.10;;;19.90;74.90;19.40;97144.00;;;;5014187;28;20224;-81
2023/09/05 07:18:13;;;;;;;1.77;1.67;;;19.90;74.80;19.40;97138.00;;;;5013523;28;20309;-80
2023/09/05 07:20:41;;;;;;;2.20;2.00;;;20.00;75.00;19.50;97138.00;;;;5014027;28;20200;-81
2023/09/05 07:23:09;;;;;;;2.00;1.90;;;20.10;75.00;19.60;97143.00;;;;5013435;28;20582;-81
2023/09/05 07:25:40;;;;;;;2.47;2.27;;;20.20;75.50;19.70;97141.00;;;;5014244;28;20730;-81
2023/09/05 07:28:07;;;;;;;2.10;1.90;;;20.30;75.20;19.90;97142.00;;;;5014272;28;20232;-81
2023/09/05 07:30:34;;;;;;;2.03;1.60;;;20.40;75.20;20.00;97143.00;;;;5015475;28;20606;-81
2023/09/05 07:33:02;;;;;;;1.97;1.87;;;20.50;75.30;20.10;97145.00;;;;5014170;28;20210;-81
2023/09/05 07:35:29;;;;;;;2.53;2.00;;;20.60;75.40;20.20;97153.00;;;;5014530;28;20317;-80
2023/09/05 07:37:58;;;;;;;2.53;2.33;;;20.70;76.10;20.30;97154.00;;;;5016720;28;20210;-81
2023/09/05 07:40:26;;;;;;;1.80;1.70;;;20.80;74.80;20.50;97144.00;;;;5031362;28;20198;-81
2023/09/05 07:42:54;;;;;;;2.40;1.80;;;20.90;74.80;20.60;97151.00;;;;5007995;28;20191;-81
2023/09/05 07:45:24;;;;;;;1.97;1.87;;;21.00;74.30;20.70;97147.00;;;;5018435;28;20483;-81
2023/09/05 07:47:53;;;;;;;2.23;1.50;;;21.10;74.20;20.80;97151.00;;;;5018575;28;20232;-81
2023/09/05 07:50:20;;;;;;;1.90;1.80;;;21.30;74.30;20.90;97154.00;;;;5019110;28;20240;-81
2023/09/05 07:52:48;;;;;;;2.77;1.60;;;21.40;73.30;21.00;97158.00;;;;5017998;28;20198;-81
2023/09/05 07:55:17;;;;;;;1.60;1.50;;;21.50;72.60;21.20;97155.00;;;;5020445;28;20210;-81
2023/09/05 07:57:46;;;;;;;1.50;1.40;;;21.60;72.50;21.30;97155.00;;;;5019554;28;20587;-82
2023/09/05 08:00:17;;;;;;;3.43;1.77;;;21.80;72.50;21.50;97157.00;;;;5020221;28;20233;-82
2023/09/05 08:02:45;;;;;;;1.47;1.37;;;21.90;72.50;21.60;97160.00;;;;5020918;28;20210;-80
2023/09/05 08:05:13;;;;;;;2.30;1.60;;;22.00;72.10;21.70;97155.00;;;;5018414;28;20630;-80
2023/09/05 08:07:40;;;;;;;1.97;1.50;;;22.10;71.70;21.80;97152.00;;;;5018972;28;20703;-81
2023/09/05 08:10:10;;;;;;;1.50;1.40;;;22.30;71.40;21.90;97153.00;;;;5021432;28;20201;-81
2023/09/05 08:12:39;;;;;;;1.90;1.80;;;22.30;70.90;22.00;97146.00;;;;5010119;28;20809;-81
2023/09/05 08:15:08;;;;;;;1.60;1.50;;;22.50;70.80;22.20;97161.00;;;;5021222;28;20218;-81
2023/09/05 08:17:35;;;;;;;3.47;2.07;;;22.60;70.90;22.30;97158.00;;;;5003226;28;20648;-81
2023/09/05 08:20:04;;;;;;;1.60;1.50;;;22.70;70.70;22.40;97162.00;;;;5018796;28;20206;-81
2023/09/05 08:22:32;;;;;;;2.43;1.90;;;22.80;70.50;22.50;97166.00;;;;5020632;28;20202;-81
2023/09/05 08:25:00;;;;;;;2.20;1.50;;;22.90;69.90;22.60;97157.00;;;;5002654;28;20290;-81
2023/09/05 08:27:29;;;;;;;2.07;1.50;;;23.00;69.90;22.70;97159.00;;;;5019997;28;20569;-81
2023/09/05 08:29:58;;;;;;;1.57;1.47;;;23.10;70.00;22.90;97160.00;;;;5036174;28;20637;-81
2023/09/05 08:32:25;;;;;;;1.90;1.60;;;23.30;70.50;23.00;97156.00;;;;5022124;28;20291;-81
2023/09/05 08:34:52;;;;;;;1.93;1.83;;;23.40;69.70;23.10;97156.00;;;;5021357;28;20193;-81
2023/09/05 08:37:20;;;;;;;2.17;1.60;;;23.50;69.40;23.20;97155.00;;;;5023530;28;20210;-81
2023/09/05 08:39:47;;;;;;;1.50;1.40;;;23.60;69.90;23.40;97159.00;;;;5020513;28;20289;-81
2023/09/05 08:42:14;;;;;;;1.90;1.60;;;23.70;68.70;23.50;97161.00;;;;5012330;28;20198;-80
2023/09/05 08:44:43;;;;;;;1.50;1.40;;;23.80;68.20;23.60;97155.00;;;;5000936;28;20223;-81
2023/09/05 08:47:12;;;;;;;1.70;1.40;;;23.90;68.40;23.70;97163.00;;;;5018093;28;20735;-81
2023/09/05 08:49:39;;;;;;;1.47;1.37;;;24.00;67.80;23.80;97152.00;;;;5019703;28;20217;-80
2023/09/05 08:52:10;;;;;;;1.77;1.67;;;24.10;67.70;23.90;97168.00;;;;5016799;28;20205;-81
2023/09/05 08:54:38;;;;;;;2.00;1.50;;;24.30;67.40;24.00;97158.00;;;;5016721;28;20285;-82
2023/09/05 08:57:08;;;;;;;2.03;1.77;;;24.40;67.20;24.10;97158.00;;;;5020229;28;20221;-81
2023/09/05 08:59:35;;;;;;;2.93;1.33;;;24.50;67.10;24.30;97160.00;;;;5021895;28;20215;-81
2023/09/05 09:02:04;;;;;;;2.10;1.77;;;24.60;66.90;24.40;97153.00;;;;5020986;28;20289;-82
2023/09/05 09:04:32;;;;;;;1.77;1.67;;;24.70;66.60;24.50;97156.00;;;;5021993;28;20292;-82
2023/09/05 09:07:00;;;;;;;5.77;2.10;;;24.80;66.10;24.60;97145.00;;;;5021342;28;20298;-81
2023/09/05 09:09:35;;;;;;;1.93;1.70;;;24.90;65.90;24.70;97151.00;;;;5021665;28;20222;-81
2023/09/05 09:12:03;;;;;;;1.60;1.47;;;25.10;64.80;24.80;97143.00;;;;5021713;28;20205;-81
2023/09/05 09:14:30;;;;;;;1.30;1.20;;;25.10;65.50;24.90;97147.00;;;;5022418;28;20240;-81
2023/09/05 09:17:00;;;;;;;5.37;1.90;;;25.20;65.20;25.00;97152.00;;;;5020814;28;20233;-82
2023/09/05 09:19:29;;;;;;;1.87;1.40;;;25.40;64.00;25.20;97152.00;;;;5023539;28;20198;-81
2023/09/05 09:22:02;;;;;;;1.70;1.60;;;25.50;64.40;25.30;97152.00;;;;5021021;28;20225;-81
2023/09/05 09:24:34;;;;;;;1.47;1.30;;;25.60;63.70;25.40;97147.00;;;;5023313;28;20202;-81
2023/09/05 09:27:03;;;;;;;1.50;1.40;;;25.70;63.90;25.50;97151.00;;;;5021607;28;20225;-82
2023/09/05 09:29:30;;;;;;;1.50;1.40;;;25.80;63.90;25.60;97157.00;;;;5022490;28;20231;-82
2023/09/05 09:32:04;;;;;;;1.70;1.60;;;25.90;63.50;25.70;97153.00;;;;5020685;28;20206;-82
2023/09/05 09:34:32;;;;;;;2.07;1.67;;;26.00;62.70;25.80;97151.00;;;;5021520;28;20208;-83
2023/09/05 09:37:01;;;;;;;1.93;1.83;;;26.10;62.90;25.90;97147.00;;;;5021444;28;20214;-82
2023/09/05 09:39:32;;;;;;;1.70;1.60;;;26.20;62.10;26.00;97141.00;;;;5021125;28;20260;-81
2023/09/05 09:42:00;;;;;;;1.40;1.30;;;26.30;61.90;26.10;97150.00;;;;5023221;28;20266;-81
2023/09/05 09:44:29;;;;;;;1.60;1.50;;;26.40;62.10;26.10;97146.00;;;;5023550;28;20198;-81
2023/09/05 09:46:59;;;;;;;1.53;1.43;;;26.50;61.60;26.20;97148.00;;;;5022573;28;20290;-81
2023/09/05 09:49:28;;;;;;;1.60;1.50;;;26.60;61.00;26.30;97134.00;;;;5023947;28;20224;-81
2023/09/05 09:52:03;;;;;;;1.90;1.70;;;26.70;60.30;26.40;97139.00;;;;5023973;28;20309;-81
2023/09/05 09:54:37;;;;;;;1.40;1.30;;;26.80;59.40;26.50;97141.00;;;;5025107;28;20237;-81
2023/09/05 09:57:07;;;;;;;1.60;1.50;;;26.80;59.30;26.60;97143.00;;;;5024255;28;20222;-81
2023/09/05 09:59:44;;;;;;;2.88;2.17;;;26.90;60.00;26.70;97140.00;;;;5023480;28;20667;-81
2023/09/05 10:02:16;;;;;;;3.90;1.73;;;27.00;59.70;26.80;97141.00;;;;5031472;28;20200;-81
2023/09/05 10:04:46;;;;;;;1.60;1.50;;;27.10;59.40;26.90;97135.00;;;;5030713;28;20691;-81
2023/09/05 10:07:16;;;;;;;1.42;1.30;;;27.20;59.20;26.90;97128.00;;;;5018987;28;20530;-82
2023/09/05 10:09:44;;;;;;;2.05;1.50;;;27.30;58.60;27.00;97131.00;;;;5018808;28;20226;-82
2023/09/05 10:12:12;;;;;;;1.70;1.48;;;27.30;58.30;27.10;97130.00;;;;5018106;28;20248;-81
2023/09/05 10:14:41;;;;;;;2.05;1.90;;;27.40;58.30;27.20;97122.00;;;;5017901;28;20257;-83
2023/09/05 10:17:18;;;;;;;1.88;1.67;;;27.50;58.40;27.20;97127.00;;;;5014218;28;20835;-83
2023/09/05 10:19:47;;;;;;;1.75;1.65;;;27.60;57.30;27.30;97132.00;;;;5013294;28;20209;-83
2023/09/05 10:22:18;;;;;;;1.80;1.70;;;27.60;58.00;27.40;97126.00;;;;5013871;28;20208;-83
2023/09/05 10:24:47;;;;;;;1.60;1.50;;;27.70;57.80;27.50;97123.00;;;;5015069;28;20202;-82
2023/09/05 10:27:14;;;;;;;1.48;1.30;;;27.80;57.30;27.60;97112.00;;;;5013148;28;20209;-83
2023/09/05 10:29:43;;;;;;;2.20;1.60;;;27.80;57.10;27.60;97111.00;;;;5013874;28;20249;-83
2023/09/05 10:32:14;;;;;;;1.85;1.75;;;27.90;56.70;27.70;97113.00;;;;5014802;28;20197;-82
2023/09/05 10:35:01;;;;;;;2.05;1.80;;;28.00;56.70;27.80;97113.00;;;;5012642;28;20194;-83
2023/09/05 10:37:45;;;;;;;1.60;1.50;;;28.10;54.80;27.90;97111.00;;;;5010919;28;20598;-83
2023/09/05 10:40:12;;;;;;;1.70;1.60;;;28.20;53.90;28.00;97102.00;;;;5014969;28;20254;-83
2023/09/05 10:42:45;;;;;;;1.95;1.63;;;28.20;55.90;28.00;97101.00;;;;5014847;28;20194;-82
2023/09/05 10:45:31;;;;;;;2.08;1.30;;;28.30;55.20;28.10;97102.00;;;;5014622;28;20220;-83
2023/09/05 10:48:12;;;;;;;1.40;1.30;;;28.40;55.00;28.10;97111.00;;;;5027594;28;20205;-83
2023/09/05 10:51:12;;;;;;;1.50;1.40;;;28.40;56.00;28.20;97102.00;;;;5009127;28;20795;-83
2023/09/05 10:53:42;;;;;;;1.60;1.50;;;28.50;54.80;28.20;97114.00;;;;4950808;28;20209;-83
2023/09/05 10:56:41;;;;;;;1.52;1.42;;;28.50;55.30;28.20;97098.00;;;;4995795;28;20232;-83
2023/09/05 10:59:10;;;;;;;1.40;1.30;;;28.50;53.90;28.10;97103.00;;;;5008937;28;20590;-82
2023/09/05 11:01:56;;;;;;;2.00;1.80;;;28.50;54.80;28.10;97100.00;;;;4971207;28;20201;-83
2023/09/05 11:04:29;;;;;;;2.95;1.80;;;28.40;54.80;28.00;97099.00;;;;5008638;28;20198;-83
2023/09/05 11:07:00;;;;;;;3.20;1.50;;;28.40;54.80;28.00;97099.00;;;;5008581;28;20254;-84